sensor_id;sensor_type;location;lat;lon;timestamp;temperature;humidity
19037;DHT22;9651;49.138;8.900;2023-01-15T00:02:17;11.50;99.90
19037;DHT22;9651;49.138;8.900;2023-01-15T00:06:20;11.40;99.90
19037;DHT22;9651;49.138;8.900;2023-01-15T00:10:22;11.40;99.90
19037;DHT22;9651;49.138;8.900;2023-01-15T00:14:24;11.40;99.90
19037;DHT22;9651;49.138;8.900;2023-01-15T00:18:27;11.40;99.90
19037;DHT22;9651;49.138;8.900;2023-01-15T00:22:29;11.40;99.90
19037;DHT22;9651;49.138;8.900;2023-01-15T00:26:32;11.40;99.90
19037;DHT22;9651;49.138;8.900;2023-01-15T00:30:52;11.40;99.90
19037;DHT22;9651;49.138;8.900;2023-01-15T00:34:56;11.30;99.90
19037;DHT22;9651;49.138;8.900;2023-01-15T00:38:58;11.30;99.90
19037;DHT22;9651;49.138;8.900;2023-01-15T00:43:00;11.30;99.90
19037;DHT22;9651;49.138;8.900;2023-01-15T00:47:02;11.30;99.90
19037;DHT22;9651;49.138;8.900;2023-01-15T00:51:07;11.30;99.90
19037;DHT22;9651;49.138;8.900;2023-01-15T00:55:09;11.40;99.90
19037;DHT22;9651;49.138;8.900;2023-01-15T00:59:11;11.60;99.90
19037;DHT22;9651;49.138;8.900;2023-01-15T01:03:13;11.60;99.90
19037;DHT22;9651;49.138;8.900;2023-01-15T01:07:16;11.70;99.90
19037;DHT22;9651;49.138;8.900;2023-01-15T01:11:20;11.60;99.90
19037;DHT22;9651;49.138;8.900;2023-01-15T01:15:23;11.60;99.90
19037;DHT22;9651;49.138;8.900;2023-01-15T01:19:25;11.70;99.90
19037;DHT22;9651;49.138;8.900;2023-01-15T01:23:28;11.70;99.90
19037;DHT22;9651;49.138;8.900;2023-01-15T01:27:32;11.70;99.90
19037;DHT22;9651;49.138;8.900;2023-01-15T01:31:34;11.70;99.90
19037;DHT22;9651;49.138;8.900;2023-01-15T01:35:35;11.80;99.90
19037;DHT22;9651;49.138;8.900;2023-01-15T01:39:39;11.70;99.90
19037;DHT22;9651;49.138;8.900;2023-01-15T01:43:56;11.70;99.90
19037;DHT22;9651;49.138;8.900;2023-01-15T01:48:02;11.70;99.90
19037;DHT22;9651;49.138;8.900;2023-01-15T01:52:07;11.70;99.90
19037;DHT22;9651;49.138;8.900;2023-01-15T01:56:11;11.80;99.90
19037;DHT22;9651;49.138;8.900;2023-01-15T02:00:17;11.80;99.90
19037;DHT22;9651;49.138;8.900;2023-01-15T02:04:21;11.80;99.90
19037;DHT22;9651;49.138;8.900;2023-01-15T02:08:26;11.80;99.90
19037;DHT22;9651;49.138;8.900;2023-01-15T02:12:33;11.80;99.90
19037;DHT22;9651;49.138;8.900;2023-01-15T02:16:41;11.80;99.90
19037;DHT22;9651;49.138;8.900;2023-01-15T02:20:47;11.70;99.90
19037;DHT22;9651;49.138;8.900;2023-01-15T02:24:58;11.70;99.90
19037;DHT22;9651;49.138;8.900;2023-01-15T02:29:09;11.70;99.90
19037;DHT22;9651;49.138;8.900;2023-01-15T02:33:15;11.70;99.90
19037;DHT22;9651;49.138;8.900;2023-01-15T02:37:23;11.70;99.90
19037;DHT22;9651;49.138;8.900;2023-01-15T02:41:31;11.60;99.90
19037;DHT22;9651;49.138;8.900;2023-01-15T02:45:38;11.70;99.90
19037;DHT22;9651;49.138;8.900;2023-01-15T02:49:46;11.70;99.90
19037;DHT22;9651;49.138;8.900;2023-01-15T02:53:54;11.70;99.90
19037;DHT22;9651;49.138;8.900;2023-01-15T02:58:01;11.70;99.90
19037;DHT22;9651;49.138;8.900;2023-01-15T03:02:10;11.70;99.90
19037;DHT22;9651;49.138;8.900;2023-01-15T03:06:17;11.60;99.90
19037;DHT22;9651;49.138;8.900;2023-01-15T03:10:23;11.60;99.90
19037;DHT22;9651;49.138;8.900;2023-01-15T03:14:36;11.60;99.90
19037;DHT22;9651;49.138;8.900;2023-01-15T03:18:43;11.70;99.90
19037;DHT22;9651;49.138;8.900;2023-01-15T03:22:50;11.70;99.90
19037;DHT22;9651;49.138;8.900;2023-01-15T03:26:54;11.70;99.90
19037;DHT22;9651;49.138;8.900;2023-01-15T03:30:57;11.70;99.90
19037;DHT22;9651;49.138;8.900;2023-01-15T03:35:00;11.60;99.90
19037;DHT22;9651;49.138;8.900;2023-01-15T03:39:04;11.70;99.90
19037;DHT22;9651;49.138;8.900;2023-01-15T03:43:35;11.70;99.90
19037;DHT22;9651;49.138;8.900;2023-01-15T03:47:48;11.70;99.90
19037;DHT22;9651;49.138;8.900;2023-01-15T03:52:02;11.70;99.90
19037;DHT22;9651;49.138;8.900;2023-01-15T03:56:14;11.70;99.90
19037;DHT22;9651;49.138;8.900;2023-01-15T04:00:25;11.80;99.90
19037;DHT22;9651;49.138;8.900;2023-01-15T04:04:32;11.80;99.90
19037;DHT22;9651;49.138;8.900;2023-01-15T04:08:39;11.70;99.90
19037;DHT22;9651;49.138;8.900;2023-01-15T04:12:43;11.70;99.90
19037;DHT22;9651;49.138;8.900;2023-01-15T04:16:45;11.50;99.90
19037;DHT22;9651;49.138;8.900;2023-01-15T04:20:49;11.40;99.90
19037;DHT22;9651;49.138;8.900;2023-01-15T04:24:52;11.20;99.90
19037;DHT22;9651;49.138;8.900;2023-01-15T04:28:54;11.00;99.90
19037;DHT22;9651;49.138;8.900;2023-01-15T04:32:56;10.80;99.90
19037;DHT22;9651;49.138;8.900;2023-01-15T04:36:58;10.60;99.90
19037;DHT22;9651;49.138;8.900;2023-01-15T04:41:02;10.40;99.90
19037;DHT22;9651;49.138;8.900;2023-01-15T04:45:21;10.30;99.90
19037;DHT22;9651;49.138;8.900;2023-01-15T04:49:23;10.20;99.90
19037;DHT22;9651;49.138;8.900;2023-01-15T04:53:25;10.00;99.90
19037;DHT22;9651;49.138;8.900;2023-01-15T04:57:28;9.90;99.90
19037;DHT22;9651;49.138;8.900;2023-01-15T05:01:30;9.80;99.90
19037;DHT22;9651;49.138;8.900;2023-01-15T05:05:32;9.80;99.90
19037;DHT22;9651;49.138;8.900;2023-01-15T05:09:34;9.70;99.90
19037;DHT22;9651;49.138;8.900;2023-01-15T05:13:37;9.60;99.90
19037;DHT22;9651;49.138;8.900;2023-01-15T05:17:39;9.50;99.90
19037;DHT22;9651;49.138;8.900;2023-01-15T05:21:42;9.40;99.90
19037;DHT22;9651;49.138;8.900;2023-01-15T05:25:44;9.40;99.90
19037;DHT22;9651;49.138;8.900;2023-01-15T05:29:48;9.30;99.90
19037;DHT22;9651;49.138;8.900;2023-01-15T05:33:50;9.30;99.90
19037;DHT22;9651;49.138;8.900;2023-01-15T05:37:52;9.20;99.90
19037;DHT22;9651;49.138;8.900;2023-01-15T05:41:54;9.20;99.90
19037;DHT22;9651;49.138;8.900;2023-01-15T05:46:01;9.10;99.90
19037;DHT22;9651;49.138;8.900;2023-01-15T05:50:04;9.00;99.90
19037;DHT22;9651;49.138;8.900;2023-01-15T05:54:09;8.90;99.90
19037;DHT22;9651;49.138;8.900;2023-01-15T05:58:11;8.90;99.90
19037;DHT22;9651;49.138;8.900;2023-01-15T06:02:14;8.80;99.90
19037;DHT22;9651;49.138;8.900;2023-01-15T06:06:17;8.70;99.90
19037;DHT22;9651;49.138;8.900;2023-01-15T06:10:19;8.60;99.90
19037;DHT22;9651;49.138;8.900;2023-01-15T06:14:21;8.40;99.90
19037;DHT22;9651;49.138;8.900;2023-01-15T06:18:24;8.30;99.90
19037;DHT22;9651;49.138;8.900;2023-01-15T06:22:26;8.20;99.90
19037;DHT22;9651;49.138;8.900;2023-01-15T06:26:29;8.00;99.90
19037;DHT22;9651;49.138;8.900;2023-01-15T06:30:31;7.90;99.90
19037;DHT22;9651;49.138;8.900;2023-01-15T06:34:34;7.80;99.90
19037;DHT22;9651;49.138;8.900;2023-01-15T06:38:36;7.80;99.90
19037;DHT22;9651;49.138;8.900;2023-01-15T06:42:38;7.70;99.90
19037;DHT22;9651;49.138;8.900;2023-01-15T06:47:00;7.70;99.90
19037;DHT22;9651;49.138;8.900;2023-01-15T06:51:21;7.50;99.90
19037;DHT22;9651;49.138;8.900;2023-01-15T06:55:23;7.40;99.90
19037;DHT22;9651;49.138;8.900;2023-01-15T06:59:24;7.30;99.90
19037;DHT22;9651;49.138;8.900;2023-01-15T07:03:26;7.20;99.90
19037;DHT22;9651;49.138;8.900;2023-01-15T07:07:29;7.20;99.90
19037;DHT22;9651;49.138;8.900;2023-01-15T07:11:31;7.30;99.90
19037;DHT22;9651;49.138;8.900;2023-01-15T07:15:33;7.20;99.90
19037;DHT22;9651;49.138;8.900;2023-01-15T07:19:35;7.30;99.90
19037;DHT22;9651;49.138;8.900;2023-01-15T07:23:38;7.30;99.90
19037;DHT22;9651;49.138;8.900;2023-01-15T07:27:40;7.30;99.90
19037;DHT22;9651;49.138;8.900;2023-01-15T07:31:42;7.20;99.90
19037;DHT22;9651;49.138;8.900;2023-01-15T07:35:44;7.20;99.90
19037;DHT22;9651;49.138;8.900;2023-01-15T07:39:47;7.20;99.90
19037;DHT22;9651;49.138;8.900;2023-01-15T07:43:49;7.10;99.90
19037;DHT22;9651;49.138;8.900;2023-01-15T07:48:09;7.20;99.90
19037;DHT22;9651;49.138;8.900;2023-01-15T07:52:29;7.20;99.90
19037;DHT22;9651;49.138;8.900;2023-01-15T07:56:32;7.20;99.90
19037;DHT22;9651;49.138;8.900;2023-01-15T08:00:34;7.30;99.90
19037;DHT22;9651;49.138;8.900;2023-01-15T08:04:36;7.30;99.90
19037;DHT22;9651;49.138;8.900;2023-01-15T08:08:38;7.20;99.90
19037;DHT22;9651;49.138;8.900;2023-01-15T08:12:41;7.10;99.90
19037;DHT22;9651;49.138;8.900;2023-01-15T08:17:06;7.00;99.90
19037;DHT22;9651;49.138;8.900;2023-01-15T08:21:12;7.00;99.90
19037;DHT22;9651;49.138;8.900;2023-01-15T08:25:16;7.00;99.90
19037;DHT22;9651;49.138;8.900;2023-01-15T08:29:20;6.90;99.90
19037;DHT22;9651;49.138;8.900;2023-01-15T08:33:22;6.90;99.90
19037;DHT22;9651;49.138;8.900;2023-01-15T08:37:24;6.90;99.90
19037;DHT22;9651;49.138;8.900;2023-01-15T08:41:26;6.90;99.90
19037;DHT22;9651;49.138;8.900;2023-01-15T08:45:29;6.80;99.90
19037;DHT22;9651;49.138;8.900;2023-01-15T08:49:31;6.90;99.90
19037;DHT22;9651;49.138;8.900;2023-01-15T08:53:33;6.80;99.90
19037;DHT22;9651;49.138;8.900;2023-01-15T08:57:35;6.80;99.90
19037;DHT22;9651;49.138;8.900;2023-01-15T09:01:39;6.70;99.90
19037;DHT22;9651;49.138;8.900;2023-01-15T09:05:41;6.70;99.90
19037;DHT22;9651;49.138;8.900;2023-01-15T09:09:43;6.70;99.90
19037;DHT22;9651;49.138;8.900;2023-01-15T09:13:45;6.70;99.90
19037;DHT22;9651;49.138;8.900;2023-01-15T09:17:49;6.60;99.90
19037;DHT22;9651;49.138;8.900;2023-01-15T09:21:51;6.70;99.90
19037;DHT22;9651;49.138;8.900;2023-01-15T09:25:53;6.70;99.90
19037;DHT22;9651;49.138;8.900;2023-01-15T09:29:55;6.60;99.90
19037;DHT22;9651;49.138;8.900;2023-01-15T09:33:59;6.60;99.90
19037;DHT22;9651;49.138;8.900;2023-01-15T09:38:00;6.50;99.90
19037;DHT22;9651;49.138;8.900;2023-01-15T09:42:11;6.60;99.90
19037;DHT22;9651;49.138;8.900;2023-01-15T09:46:24;6.70;99.90
19037;DHT22;9651;49.138;8.900;2023-01-15T09:50:34;6.60;99.90
19037;DHT22;9651;49.138;8.900;2023-01-15T09:54:50;6.60;99.90
19037;DHT22;9651;49.138;8.900;2023-01-15T09:58:56;6.50;99.90
19037;DHT22;9651;49.138;8.900;2023-01-15T10:03:04;6.40;99.90
19037;DHT22;9651;49.138;8.900;2023-01-15T10:07:16;6.40;99.90
19037;DHT22;9651;49.138;8.900;2023-01-15T10:11:33;6.40;99.90
19037;DHT22;9651;49.138;8.900;2023-01-15T10:15:54;6.40;99.90
19037;DHT22;9651;49.138;8.900;2023-01-15T10:19:57;6.20;99.90
19037;DHT22;9651;49.138;8.900;2023-01-15T10:24:05;6.20;99.90
19037;DHT22;9651;49.138;8.900;2023-01-15T10:28:15;6.20;99.90
19037;DHT22;9651;49.138;8.900;2023-01-15T10:32:23;6.20;99.90
19037;DHT22;9651;49.138;8.900;2023-01-15T10:36:32;6.30;99.90
19037;DHT22;9651;49.138;8.900;2023-01-15T10:40:51;6.20;99.90
19037;DHT22;9651;49.138;8.900;2023-01-15T10:45:00;6.20;99.90
19037;DHT22;9651;49.138;8.900;2023-01-15T10:49:11;6.20;99.90
19037;DHT22;9651;49.138;8.900;2023-01-15T10:53:19;6.10;99.90
19037;DHT22;9651;49.138;8.900;2023-01-15T10:57:35;6.10;99.90
19037;DHT22;9651;49.138;8.900;2023-01-15T11:01:39;6.10;99.90
19037;DHT22;9651;49.138;8.900;2023-01-15T11:05:41;6.00;99.90
19037;DHT22;9651;49.138;8.900;2023-01-15T11:09:45;6.00;99.90
19037;DHT22;9651;49.138;8.900;2023-01-15T11:13:55;6.00;99.90
19037;DHT22;9651;49.138;8.900;2023-01-15T11:18:20;6.10;99.90
19037;DHT22;9651;49.138;8.900;2023-01-15T11:22:41;6.10;99.90
19037;DHT22;9651;49.138;8.900;2023-01-15T11:26:46;6.10;99.90
19037;DHT22;9651;49.138;8.900;2023-01-15T11:30:53;6.00;99.90
19037;DHT22;9651;49.138;8.900;2023-01-15T11:34:57;6.00;99.90
19037;DHT22;9651;49.138;8.900;2023-01-15T11:38:59;5.90;99.90
19037;DHT22;9651;49.138;8.900;2023-01-15T11:43:01;5.90;99.90
19037;DHT22;9651;49.138;8.900;2023-01-15T11:47:22;5.90;99.90
19037;DHT22;9651;49.138;8.900;2023-01-15T11:51:43;5.90;99.90
19037;DHT22;9651;49.138;8.900;2023-01-15T11:55:57;5.80;99.90
19037;DHT22;9651;49.138;8.900;2023-01-15T12:00:00;5.70;99.90
19037;DHT22;9651;49.138;8.900;2023-01-15T12:04:20;5.90;99.90
19037;DHT22;9651;49.138;8.900;2023-01-15T12:08:34;5.90;99.90
19037;DHT22;9651;49.138;8.900;2023-01-15T12:12:46;5.90;99.90
19037;DHT22;9651;49.138;8.900;2023-01-15T12:16:54;5.90;99.90
19037;DHT22;9651;49.138;8.900;2023-01-15T12:21:16;5.90;99.90
19037;DHT22;9651;49.138;8.900;2023-01-15T12:25:30;5.90;99.90
19037;DHT22;9651;49.138;8.900;2023-01-15T12:29:38;5.80;99.90
19037;DHT22;9651;49.138;8.900;2023-01-15T12:33:47;5.80;99.90
19037;DHT22;9651;49.138;8.900;2023-01-15T12:37:53;6.00;99.90
19037;DHT22;9651;49.138;8.900;2023-01-15T12:41:59;6.00;99.90
19037;DHT22;9651;49.138;8.900;2023-01-15T12:46:24;6.10;99.90
19037;DHT22;9651;49.138;8.900;2023-01-15T12:50:33;6.20;99.90
19037;DHT22;9651;49.138;8.900;2023-01-15T12:54:47;6.30;99.90
19037;DHT22;9651;49.138;8.900;2023-01-15T12:58:54;6.30;99.90
19037;DHT22;9651;49.138;8.900;2023-01-15T13:03:06;6.30;99.90
19037;DHT22;9651;49.138;8.900;2023-01-15T13:07:16;6.40;99.90
19037;DHT22;9651;49.138;8.900;2023-01-15T13:11:20;6.40;99.90
19037;DHT22;9651;49.138;8.900;2023-01-15T13:15:26;6.40;99.90
19037;DHT22;9651;49.138;8.900;2023-01-15T13:19:37;6.30;99.90
19037;DHT22;9651;49.138;8.900;2023-01-15T13:23:52;6.40;99.90
19037;DHT22;9651;49.138;8.900;2023-01-15T13:28:12;6.40;99.90
19037;DHT22;9651;49.138;8.900;2023-01-15T13:32:23;6.30;99.90
19037;DHT22;9651;49.138;8.900;2023-01-15T13:36:30;6.30;99.90
19037;DHT22;9651;49.138;8.900;2023-01-15T13:40:38;6.30;99.90
19037;DHT22;9651;49.138;8.900;2023-01-15T13:44:47;6.30;99.90
19037;DHT22;9651;49.138;8.900;2023-01-15T13:48:52;6.30;99.90
19037;DHT22;9651;49.138;8.900;2023-01-15T13:53:00;6.40;99.90
19037;DHT22;9651;49.138;8.900;2023-01-15T13:57:07;6.40;99.90
19037;DHT22;9651;49.138;8.900;2023-01-15T14:01:23;6.40;99.90
19037;DHT22;9651;49.138;8.900;2023-01-15T14:05:29;6.30;99.90
19037;DHT22;9651;49.138;8.900;2023-01-15T14:09:32;6.30;99.90
19037;DHT22;9651;49.138;8.900;2023-01-15T14:13:49;6.30;99.90
19037;DHT22;9651;49.138;8.900;2023-01-15T14:18:24;6.20;99.90
19037;DHT22;9651;49.138;8.900;2023-01-15T14:22:39;6.20;99.90
19037;DHT22;9651;49.138;8.900;2023-01-15T14:26:52;6.20;99.90
19037;DHT22;9651;49.138;8.900;2023-01-15T14:31:18;6.30;99.90
19037;DHT22;9651;49.138;8.900;2023-01-15T14:35:25;6.20;99.90
19037;DHT22;9651;49.138;8.900;2023-01-15T14:39:35;6.20;99.90
19037;DHT22;9651;49.138;8.900;2023-01-15T14:43:46;6.20;99.90
19037;DHT22;9651;49.138;8.900;2023-01-15T14:47:50;6.30;99.90
19037;DHT22;9651;49.138;8.900;2023-01-15T14:51:53;6.30;99.90
19037;DHT22;9651;49.138;8.900;2023-01-15T14:55:58;6.20;99.90
19037;DHT22;9651;49.138;8.900;2023-01-15T15:00:03;6.30;99.90
19037;DHT22;9651;49.138;8.900;2023-01-15T15:04:21;6.20;99.90
19037;DHT22;9651;49.138;8.900;2023-01-15T15:08:29;6.00;99.90
19037;DHT22;9651;49.138;8.900;2023-01-15T15:12:36;5.90;99.90
19037;DHT22;9651;49.138;8.900;2023-01-15T15:16:43;5.80;99.90
19037;DHT22;9651;49.138;8.900;2023-01-15T15:20:52;5.70;99.90
19037;DHT22;9651;49.138;8.900;2023-01-15T15:24:57;5.70;99.90
19037;DHT22;9651;49.138;8.900;2023-01-15T15:29:04;5.70;99.90
19037;DHT22;9651;49.138;8.900;2023-01-15T15:33:13;5.70;99.90
19037;DHT22;9651;49.138;8.900;2023-01-15T15:37:18;5.70;99.90
19037;DHT22;9651;49.138;8.900;2023-01-15T15:41:23;5.60;99.90
19037;DHT22;9651;49.138;8.900;2023-01-15T15:45:50;5.60;99.90
19037;DHT22;9651;49.138;8.900;2023-01-15T15:50:19;5.60;99.90
19037;DHT22;9651;49.138;8.900;2023-01-15T15:54:22;5.50;99.90
19037;DHT22;9651;49.138;8.900;2023-01-15T15:58:31;5.40;99.90
19037;DHT22;9651;49.138;8.900;2023-01-15T16:02:37;5.40;99.90
19037;DHT22;9651;49.138;8.900;2023-01-15T16:06:40;5.30;99.90
19037;DHT22;9651;49.138;8.900;2023-01-15T16:10:43;5.40;99.90
19037;DHT22;9651;49.138;8.900;2023-01-15T16:14:48;5.40;99.90
19037;DHT22;9651;49.138;8.900;2023-01-15T16:18:52;5.40;99.90
19037;DHT22;9651;49.138;8.900;2023-01-15T16:22:57;5.40;99.90
19037;DHT22;9651;49.138;8.900;2023-01-15T16:27:01;5.40;99.90
19037;DHT22;9651;49.138;8.900;2023-01-15T16:31:07;5.40;99.90
19037;DHT22;9651;49.138;8.900;2023-01-15T16:35:15;5.40;99.90
19037;DHT22;9651;49.138;8.900;2023-01-15T16:39:22;5.40;99.90
19037;DHT22;9651;49.138;8.900;2023-01-15T16:43:25;5.40;99.90
19037;DHT22;9651;49.138;8.900;2023-01-15T16:47:31;5.50;99.90
19037;DHT22;9651;49.138;8.900;2023-01-15T16:51:35;5.50;99.90
19037;DHT22;9651;49.138;8.900;2023-01-15T16:55:43;5.50;99.90
19037;DHT22;9651;49.138;8.900;2023-01-15T17:00:00;5.40;99.90
19037;DHT22;9651;49.138;8.900;2023-01-15T17:04:17;5.40;99.90
19037;DHT22;9651;49.138;8.900;2023-01-15T17:08:22;5.40;99.90
19037;DHT22;9651;49.138;8.900;2023-01-15T17:12:27;5.50;99.90
19037;DHT22;9651;49.138;8.900;2023-01-15T17:16:30;5.50;99.90
19037;DHT22;9651;49.138;8.900;2023-01-15T17:20:33;5.50;99.90
19037;DHT22;9651;49.138;8.900;2023-01-15T17:24:35;5.50;99.90
19037;DHT22;9651;49.138;8.900;2023-01-15T17:28:37;5.40;99.90
19037;DHT22;9651;49.138;8.900;2023-01-15T17:32:39;5.50;99.90
19037;DHT22;9651;49.138;8.900;2023-01-15T17:36:42;5.40;99.90
19037;DHT22;9651;49.138;8.900;2023-01-15T17:40:45;5.50;99.90
19037;DHT22;9651;49.138;8.900;2023-01-15T17:44:46;5.40;99.90
19037;DHT22;9651;49.138;8.900;2023-01-15T17:48:48;5.40;99.90
19037;DHT22;9651;49.138;8.900;2023-01-15T17:52:51;5.40;99.90
19037;DHT22;9651;49.138;8.900;2023-01-15T17:56:53;5.40;99.90
19037;DHT22;9651;49.138;8.900;2023-01-15T18:01:23;5.30;99.90
19037;DHT22;9651;49.138;8.900;2023-01-15T18:05:44;5.40;99.90
19037;DHT22;9651;49.138;8.900;2023-01-15T18:09:48;5.50;99.90
19037;DHT22;9651;49.138;8.900;2023-01-15T18:13:52;5.50;99.90
19037;DHT22;9651;49.138;8.900;2023-01-15T18:17:55;5.50;99.90
19037;DHT22;9651;49.138;8.900;2023-01-15T18:21:57;5.50;99.90
19037;DHT22;9651;49.138;8.900;2023-01-15T18:26:03;5.50;99.90
19037;DHT22;9651;49.138;8.900;2023-01-15T18:30:06;5.50;99.90
19037;DHT22;9651;49.138;8.900;2023-01-15T18:34:08;5.50;99.90
19037;DHT22;9651;49.138;8.900;2023-01-15T18:38:10;5.60;99.90
19037;DHT22;9651;49.138;8.900;2023-01-15T18:42:13;5.60;99.90
19037;DHT22;9651;49.138;8.900;2023-01-15T18:46:33;5.60;99.90
19037;DHT22;9651;49.138;8.900;2023-01-15T18:50:43;5.60;99.90
19037;DHT22;9651;49.138;8.900;2023-01-15T18:54:46;5.60;99.90
19037;DHT22;9651;49.138;8.900;2023-01-15T18:58:49;5.60;99.90
19037;DHT22;9651;49.138;8.900;2023-01-15T19:02:51;5.50;99.90
19037;DHT22;9651;49.138;8.900;2023-01-15T19:06:53;5.40;99.90
19037;DHT22;9651;49.138;8.900;2023-01-15T19:10:55;5.40;99.90
19037;DHT22;9651;49.138;8.900;2023-01-15T19:14:58;5.40;99.90
19037;DHT22;9651;49.138;8.900;2023-01-15T19:19:18;5.40;99.90
19037;DHT22;9651;49.138;8.900;2023-01-15T19:23:20;5.40;99.90
19037;DHT22;9651;49.138;8.900;2023-01-15T19:27:22;5.40;99.90
19037;DHT22;9651;49.138;8.900;2023-01-15T19:31:25;5.30;99.90
19037;DHT22;9651;49.138;8.900;2023-01-15T19:35:38;5.30;99.90
19037;DHT22;9651;49.138;8.900;2023-01-15T19:39:39;5.30;99.90
19037;DHT22;9651;49.138;8.900;2023-01-15T19:43:41;5.30;99.90
19037;DHT22;9651;49.138;8.900;2023-01-15T19:48:02;5.20;99.90
19037;DHT22;9651;49.138;8.900;2023-01-15T19:52:21;5.20;99.90
19037;DHT22;9651;49.138;8.900;2023-01-15T19:56:35;5.10;99.90
19037;DHT22;9651;49.138;8.900;2023-01-15T20:00:38;5.10;99.90
19037;DHT22;9651;49.138;8.900;2023-01-15T20:04:44;5.10;99.90
19037;DHT22;9651;49.138;8.900;2023-01-15T20:08:46;5.10;99.90
19037;DHT22;9651;49.138;8.900;2023-01-15T20:12:48;5.00;99.90
19037;DHT22;9651;49.138;8.900;2023-01-15T20:17:07;5.00;99.90
19037;DHT22;9651;49.138;8.900;2023-01-15T20:21:12;5.00;99.90
19037;DHT22;9651;49.138;8.900;2023-01-15T20:25:15;5.00;99.90
19037;DHT22;9651;49.138;8.900;2023-01-15T20:29:17;5.00;99.90
19037;DHT22;9651;49.138;8.900;2023-01-15T20:33:19;5.00;99.90
19037;DHT22;9651;49.138;8.900;2023-01-15T20:37:23;5.10;99.90
19037;DHT22;9651;49.138;8.900;2023-01-15T20:41:25;5.00;99.90
19037;DHT22;9651;49.138;8.900;2023-01-15T20:45:44;5.00;99.90
19037;DHT22;9651;49.138;8.900;2023-01-15T20:49:47;5.00;99.90
19037;DHT22;9651;49.138;8.900;2023-01-15T20:53:50;5.00;99.90
19037;DHT22;9651;49.138;8.900;2023-01-15T20:57:52;4.90;99.90
19037;DHT22;9651;49.138;8.900;2023-01-15T21:01:54;4.80;99.90
19037;DHT22;9651;49.138;8.900;2023-01-15T21:05:56;4.70;99.90
19037;DHT22;9651;49.138;8.900;2023-01-15T21:09:59;4.70;99.90
19037;DHT22;9651;49.138;8.900;2023-01-15T21:14:01;4.70;99.90
19037;DHT22;9651;49.138;8.900;2023-01-15T21:18:03;4.80;99.90
19037;DHT22;9651;49.138;8.900;2023-01-15T21:22:05;4.90;99.90
19037;DHT22;9651;49.138;8.900;2023-01-15T21:26:08;4.80;99.90
19037;DHT22;9651;49.138;8.900;2023-01-15T21:30:11;4.80;99.90
19037;DHT22;9651;49.138;8.900;2023-01-15T21:34:13;4.70;99.90
19037;DHT22;9651;49.138;8.900;2023-01-15T21:38:15;4.60;99.90
19037;DHT22;9651;49.138;8.900;2023-01-15T21:42:19;4.50;99.90
19037;DHT22;9651;49.138;8.900;2023-01-15T21:46:41;4.50;99.90
19037;DHT22;9651;49.138;8.900;2023-01-15T21:50:43;4.50;99.90
19037;DHT22;9651;49.138;8.900;2023-01-15T21:54:45;4.50;99.90
19037;DHT22;9651;49.138;8.900;2023-01-15T21:58:48;4.50;99.90
19037;DHT22;9651;49.138;8.900;2023-01-15T22:02:50;4.50;99.90
19037;DHT22;9651;49.138;8.900;2023-01-15T22:06:54;4.50;99.90
19037;DHT22;9651;49.138;8.900;2023-01-15T22:11:00;4.50;99.90
19037;DHT22;9651;49.138;8.900;2023-01-15T22:15:04;4.50;99.90
19037;DHT22;9651;49.138;8.900;2023-01-15T22:19:06;4.50;99.90
19037;DHT22;9651;49.138;8.900;2023-01-15T22:23:08;4.50;99.90
19037;DHT22;9651;49.138;8.900;2023-01-15T22:27:14;4.50;99.90
19037;DHT22;9651;49.138;8.900;2023-01-15T22:31:17;4.40;99.90
19037;DHT22;9651;49.138;8.900;2023-01-15T22:35:19;4.30;99.90
19037;DHT22;9651;49.138;8.900;2023-01-15T22:39:23;4.30;99.90
19037;DHT22;9651;49.138;8.900;2023-01-15T22:43:25;4.30;99.90
19037;DHT22;9651;49.138;8.900;2023-01-15T22:47:28;4.40;99.90
19037;DHT22;9651;49.138;8.900;2023-01-15T22:51:30;4.40;99.90
19037;DHT22;9651;49.138;8.900;2023-01-15T22:55:32;4.50;99.90
19037;DHT22;9651;49.138;8.900;2023-01-15T22:59:34;4.60;99.90
19037;DHT22;9651;49.138;8.900;2023-01-15T23:03:37;4.60;99.90
19037;DHT22;9651;49.138;8.900;2023-01-15T23:07:39;4.70;99.90
19037;DHT22;9651;49.138;8.900;2023-01-15T23:11:41;4.80;99.90
19037;DHT22;9651;49.138;8.900;2023-01-15T23:15:43;4.90;99.90
19037;DHT22;9651;49.138;8.900;2023-01-15T23:19:46;4.90;99.90
19037;DHT22;9651;49.138;8.900;2023-01-15T23:23:52;4.90;99.90
19037;DHT22;9651;49.138;8.900;2023-01-15T23:27:54;4.90;99.90
19037;DHT22;9651;49.138;8.900;2023-01-15T23:31:56;5.00;99.90
19037;DHT22;9651;49.138;8.900;2023-01-15T23:35:59;5.00;99.90
19037;DHT22;9651;49.138;8.900;2023-01-15T23:40:01;5.00;99.90
19037;DHT22;9651;49.138;8.900;2023-01-15T23:44:02;5.00;99.90
19037;DHT22;9651;49.138;8.900;2023-01-15T23:48:22;5.00;99.90
19037;DHT22;9651;49.138;8.900;2023-01-15T23:52:25;5.10;99.90
19037;DHT22;9651;49.138;8.900;2023-01-15T23:56:28;5.10;99.90
